PRJAQ SAWH-SAWC
Flight info
| Callsign | PRJAQ |
|---|---|
| Flight time | 0h 56m |
| Altitude | 43000 |
| Route | ROMIV2A ROMIV DCT NAS DCT MUNER MUNER2U |
| Aircraft | C750/M-SBDE3FGHRWXY/S |
Departure
| Time | 2026-05-09 13:33 |
|---|---|
| Airport | Ushuaia - Malvinas Argentinas International Airport (SAWH) |
Arrival
| Time | 2026-05-09 14:29 |
|---|---|
| Airport | El Calafate - Commander Armando Tola International Airport (SAWC) |
| Time | Latitude | Longitude | Altitude | Speed | Heading |
|---|---|---|---|---|---|
| 2026-05-09 13:31 | -54.84402 | -68.31751 | 84 ft | 11 kts | 192° |
| 2026-05-09 13:32 | -54.84412 | -68.31660 | 79 ft | 11 kts | 86° |
| 2026-05-09 13:32 | -54.84331 | -68.29655 | 116 ft | 152 kts | 79° |
| 2026-05-09 13:32 | -54.84346 | -68.27759 | 663 ft | 158 kts | 83° |
| 2026-05-09 13:33 | -54.84361 | -68.25802 | 1298 ft | 171 kts | 90° |
| 2026-05-09 13:33 | -54.84659 | -68.23710 | 1993 ft | 190 kts | 103° |
| 2026-05-09 13:33 | -54.85117 | -68.21491 | 2789 ft | 200 kts | 104° |
| 2026-05-09 13:33 | -54.85497 | -68.19137 | 3579 ft | 205 kts | 87° |
| 2026-05-09 13:34 | -54.85053 | -68.16913 | 4225 ft | 195 kts | 41° |
| 2026-05-09 13:34 | -54.83957 | -68.15460 | 4752 ft | 205 kts | 14° |
| 2026-05-09 13:34 | -54.82515 | -68.15132 | 5204 ft | 218 kts | 347° |
| 2026-05-09 13:34 | -54.81121 | -68.16286 | 5704 ft | 230 kts | 315° |
| 2026-05-09 13:35 | -54.80232 | -68.18565 | 6755 ft | 228 kts | 297° |
| 2026-05-09 13:35 | -54.79501 | -68.21042 | 7764 ft | 234 kts | 296° |
| 2026-05-09 13:35 | -54.78729 | -68.23558 | 8869 ft | 239 kts | 297° |
| 2026-05-09 13:35 | -54.77915 | -68.26108 | 9869 ft | 245 kts | 298° |
| 2026-05-09 13:36 | -54.77072 | -68.28765 | 10445 ft | 262 kts | 298° |
| 2026-05-09 13:36 | -54.76152 | -68.31687 | 10659 ft | 290 kts | 298° |
| 2026-05-09 13:36 | -54.75143 | -68.34880 | 10895 ft | 312 kts | 298° |
| 2026-05-09 13:36 | -54.74100 | -68.38166 | 11743 ft | 312 kts | 298° |
| 2026-05-09 13:37 | -54.73049 | -68.41475 | 12453 ft | 317 kts | 298° |
| 2026-05-09 13:37 | -54.71984 | -68.44829 | 13233 ft | 320 kts | 297° |
| 2026-05-09 13:37 | -54.70899 | -68.48237 | 13949 ft | 325 kts | 297° |
| 2026-05-09 13:37 | -54.69802 | -68.51680 | 14667 ft | 328 kts | 297° |
| 2026-05-09 13:38 | -54.68693 | -68.55154 | 15348 ft | 332 kts | 298° |
| 2026-05-09 13:38 | -54.67563 | -68.58644 | 16027 ft | 335 kts | 299° |
| 2026-05-09 13:38 | -54.66138 | -68.61821 | 16691 ft | 342 kts | 311° |
| 2026-05-09 13:38 | -54.64348 | -68.64563 | 17429 ft | 346 kts | 318° |
| 2026-05-09 13:39 | -54.62465 | -68.67200 | 18191 ft | 350 kts | 318° |
| 2026-05-09 13:39 | -54.60577 | -68.69888 | 18886 ft | 353 kts | 317° |
| 2026-05-09 13:39 | -54.58674 | -68.72599 | 19593 ft | 356 kts | 318° |
| 2026-05-09 13:39 | -54.56747 | -68.75320 | 20304 ft | 359 kts | 318° |
| 2026-05-09 13:40 | -54.54800 | -68.78060 | 21030 ft | 363 kts | 317° |
| 2026-05-09 13:40 | -54.52838 | -68.80827 | 21718 ft | 367 kts | 317° |
| 2026-05-09 13:40 | -54.50854 | -68.83625 | 22416 ft | 370 kts | 317° |
| 2026-05-09 13:40 | -54.48882 | -68.86398 | 23087 ft | 374 kts | 317° |
| 2026-05-09 13:41 | -54.46857 | -68.89240 | 23729 ft | 377 kts | 317° |
| 2026-05-09 13:41 | -54.45036 | -68.91795 | 24229 ft | 380 kts | 317° |
| 2026-05-09 13:41 | -54.42976 | -68.94681 | 24730 ft | 384 kts | 317° |
| 2026-05-09 13:41 | -54.40893 | -68.97595 | 25293 ft | 388 kts | 317° |
| 2026-05-09 13:42 | -54.38789 | -69.00536 | 25831 ft | 392 kts | 317° |
| 2026-05-09 13:42 | -54.36668 | -69.03496 | 26375 ft | 395 kts | 317° |
| 2026-05-09 13:42 | -54.34526 | -69.06480 | 26925 ft | 399 kts | 317° |
| 2026-05-09 13:42 | -54.32359 | -69.09496 | 27464 ft | 402 kts | 317° |
| 2026-05-09 13:43 | -54.30175 | -69.12530 | 28016 ft | 407 kts | 317° |
| 2026-05-09 13:43 | -54.27968 | -69.15593 | 28564 ft | 411 kts | 317° |
| 2026-05-09 13:43 | -54.25735 | -69.18686 | 29100 ft | 415 kts | 317° |
| 2026-05-09 13:43 | -54.23479 | -69.21808 | 29648 ft | 419 kts | 317° |
| 2026-05-09 13:44 | -54.21203 | -69.24952 | 30170 ft | 423 kts | 317° |
| 2026-05-09 13:44 | -54.18906 | -69.28121 | 30590 ft | 426 kts | 316° |
| 2026-05-09 13:44 | -54.16589 | -69.31311 | 31039 ft | 430 kts | 316° |
| 2026-05-09 13:44 | -54.14268 | -69.34502 | 31694 ft | 427 kts | 316° |
| 2026-05-09 13:45 | -54.11958 | -69.37672 | 32344 ft | 426 kts | 316° |
| 2026-05-09 13:45 | -54.09652 | -69.40836 | 32953 ft | 425 kts | 316° |
| 2026-05-09 13:45 | -54.07351 | -69.43989 | 33594 ft | 424 kts | 316° |
| 2026-05-09 13:45 | -54.05048 | -69.47136 | 34230 ft | 423 kts | 316° |
| 2026-05-09 13:46 | -54.02758 | -69.50262 | 34789 ft | 422 kts | 316° |
| 2026-05-09 13:46 | -54.00497 | -69.53345 | 35348 ft | 421 kts | 316° |
| 2026-05-09 13:46 | -53.98216 | -69.56451 | 35923 ft | 420 kts | 316° |
| 2026-05-09 13:46 | -53.95938 | -69.59547 | 36516 ft | 419 kts | 316° |
| 2026-05-09 13:47 | -53.93669 | -69.62627 | 37098 ft | 418 kts | 315° |
| 2026-05-09 13:47 | -53.91401 | -69.65702 | 37686 ft | 417 kts | 315° |
| 2026-05-09 13:47 | -53.89135 | -69.68769 | 38275 ft | 416 kts | 315° |
| 2026-05-09 13:47 | -53.86870 | -69.71830 | 38840 ft | 415 kts | 315° |
| 2026-05-09 13:48 | -53.84608 | -69.74884 | 39249 ft | 417 kts | 315° |
| 2026-05-09 13:48 | -53.82335 | -69.77950 | 39617 ft | 419 kts | 315° |
| 2026-05-09 13:48 | -53.80046 | -69.81030 | 40011 ft | 420 kts | 315° |
| 2026-05-09 13:48 | -53.77748 | -69.84116 | 40396 ft | 422 kts | 315° |
| 2026-05-09 13:49 | -53.75448 | -69.87204 | 40787 ft | 424 kts | 315° |
| 2026-05-09 13:49 | -53.73165 | -69.90264 | 41173 ft | 425 kts | 315° |
| 2026-05-09 13:49 | -53.70839 | -69.93376 | 41571 ft | 427 kts | 316° |
| 2026-05-09 13:49 | -53.68506 | -69.96493 | 41946 ft | 429 kts | 316° |
| 2026-05-09 13:50 | -53.66163 | -69.99620 | 42321 ft | 430 kts | 316° |
| 2026-05-09 13:50 | -53.63808 | -70.02758 | 42693 ft | 432 kts | 316° |
| 2026-05-09 13:50 | -53.61456 | -70.05884 | 43035 ft | 430 kts | 316° |
| 2026-05-09 13:50 | -53.59078 | -70.09048 | 43035 ft | 440 kts | 316° |
| 2026-05-09 13:51 | -53.54165 | -70.15565 | 43047 ft | 459 kts | 316° |
| 2026-05-09 13:51 | -53.49053 | -70.22315 | 43057 ft | 476 kts | 316° |
| 2026-05-09 13:52 | -53.43775 | -70.29267 | 43059 ft | 487 kts | 316° |
| 2026-05-09 13:52 | -53.38429 | -70.36277 | 43046 ft | 487 kts | 316° |
| 2026-05-09 13:53 | -53.33083 | -70.43277 | 43049 ft | 487 kts | 316° |
| 2026-05-09 13:53 | -53.27743 | -70.50239 | 43048 ft | 487 kts | 316° |
| 2026-05-09 13:54 | -53.22443 | -70.57130 | 43050 ft | 485 kts | 316° |
| 2026-05-09 13:54 | -53.17104 | -70.64048 | 43062 ft | 485 kts | 316° |
| 2026-05-09 13:55 | -53.11770 | -70.70937 | 43071 ft | 485 kts | 316° |
| 2026-05-09 13:55 | -53.06441 | -70.77798 | 43069 ft | 484 kts | 316° |
| 2026-05-09 13:56 | -53.01019 | -70.84429 | 43020 ft | 491 kts | 324° |
| 2026-05-09 13:56 | -52.97864 | -70.86708 | 43040 ft | 501 kts | 335° |
| 2026-05-09 13:56 | -52.94492 | -70.88307 | 43091 ft | 505 kts | 338° |
| 2026-05-09 13:57 | -52.87698 | -70.91385 | 43082 ft | 505 kts | 338° |
| 2026-05-09 13:57 | -52.80936 | -70.94536 | 43068 ft | 505 kts | 338° |
| 2026-05-09 13:58 | -52.74167 | -70.97615 | 43055 ft | 504 kts | 338° |
| 2026-05-09 13:58 | -52.67455 | -71.00699 | 43053 ft | 504 kts | 338° |
| 2026-05-09 13:59 | -52.60686 | -71.03775 | 43056 ft | 504 kts | 338° |
| 2026-05-09 13:59 | -52.53911 | -71.06858 | 43067 ft | 504 kts | 338° |
| 2026-05-09 14:00 | -52.49376 | -71.08912 | 43064 ft | 505 kts | 338° |
| 2026-05-09 14:00 | -52.40376 | -71.12975 | 43070 ft | 504 kts | 338° |
| 2026-05-09 14:01 | -52.33619 | -71.16015 | 43078 ft | 503 kts | 338° |
| 2026-05-09 14:01 | -52.26862 | -71.19046 | 43080 ft | 503 kts | 337° |
| 2026-05-09 14:02 | -52.20153 | -71.22046 | 43092 ft | 503 kts | 337° |
| 2026-05-09 14:02 | -52.13402 | -71.25055 | 43091 ft | 503 kts | 337° |
| 2026-05-09 14:03 | -52.06653 | -71.28054 | 43093 ft | 503 kts | 337° |
| 2026-05-09 14:03 | -51.99897 | -71.31046 | 43104 ft | 502 kts | 337° |
| 2026-05-09 14:04 | -51.96566 | -71.32516 | 42504 ft | 490 kts | 336° |
| 2026-05-09 14:04 | -51.93318 | -71.33962 | 41897 ft | 477 kts | 336° |
| 2026-05-09 14:04 | -51.90155 | -71.35378 | 41280 ft | 466 kts | 335° |
| 2026-05-09 14:04 | -51.87063 | -71.36755 | 40689 ft | 455 kts | 335° |
| 2026-05-09 14:05 | -51.84036 | -71.38092 | 40111 ft | 446 kts | 335° |
| 2026-05-09 14:05 | -51.81071 | -71.39404 | 39534 ft | 437 kts | 334° |
| 2026-05-09 14:05 | -51.78156 | -71.40700 | 38974 ft | 433 kts | 334° |
| 2026-05-09 14:05 | -51.75257 | -71.41988 | 38345 ft | 432 kts | 333° |
| 2026-05-09 14:06 | -51.72364 | -71.43264 | 37783 ft | 432 kts | 333° |
| 2026-05-09 14:06 | -51.69448 | -71.44552 | 37204 ft | 437 kts | 333° |
| 2026-05-09 14:06 | -51.66540 | -71.45836 | 36623 ft | 441 kts | 332° |
| 2026-05-09 14:06 | -51.63571 | -71.47135 | 36034 ft | 442 kts | 332° |
| 2026-05-09 14:07 | -51.60599 | -71.48433 | 35438 ft | 443 kts | 331° |
| 2026-05-09 14:07 | -51.57626 | -71.49737 | 34853 ft | 443 kts | 331° |
| 2026-05-09 14:07 | -51.54651 | -71.51042 | 34261 ft | 443 kts | 330° |
| 2026-05-09 14:07 | -51.51675 | -71.52344 | 33634 ft | 443 kts | 330° |
| 2026-05-09 14:08 | -51.48696 | -71.53642 | 33049 ft | 444 kts | 330° |
| 2026-05-09 14:08 | -51.45699 | -71.54951 | 32455 ft | 446 kts | 330° |
| 2026-05-09 14:08 | -51.42696 | -71.56260 | 31865 ft | 448 kts | 331° |
| 2026-05-09 14:08 | -51.39685 | -71.57566 | 31274 ft | 449 kts | 331° |
| 2026-05-09 14:09 | -51.36662 | -71.58878 | 30680 ft | 451 kts | 331° |
| 2026-05-09 14:09 | -51.33633 | -71.60189 | 30059 ft | 449 kts | 332° |
| 2026-05-09 14:09 | -51.30641 | -71.61473 | 29469 ft | 442 kts | 332° |
| 2026-05-09 14:09 | -51.27685 | -71.62752 | 28896 ft | 438 kts | 332° |
| 2026-05-09 14:10 | -51.21837 | -71.65287 | 27768 ft | 432 kts | 333° |
| 2026-05-09 14:10 | -51.18937 | -71.66529 | 27207 ft | 429 kts | 333° |
| 2026-05-09 14:10 | -51.16109 | -71.67744 | 26657 ft | 425 kts | 333° |
| 2026-05-09 14:11 | -51.13261 | -71.68970 | 26117 ft | 422 kts | 334° |
| 2026-05-09 14:11 | -51.10432 | -71.70186 | 25559 ft | 419 kts | 334° |
| 2026-05-09 14:11 | -51.07623 | -71.71388 | 25020 ft | 416 kts | 334° |
| 2026-05-09 14:11 | -51.04838 | -71.72579 | 24481 ft | 413 kts | 335° |
| 2026-05-09 14:12 | -51.02067 | -71.73764 | 23944 ft | 410 kts | 335° |
| 2026-05-09 14:12 | -50.99324 | -71.74935 | 23369 ft | 407 kts | 335° |
| 2026-05-09 14:12 | -50.96598 | -71.76096 | 22834 ft | 404 kts | 335° |
| 2026-05-09 14:12 | -50.93897 | -71.77247 | 22309 ft | 401 kts | 335° |
| 2026-05-09 14:13 | -50.91212 | -71.78389 | 21784 ft | 397 kts | 336° |
| 2026-05-09 14:14 | -50.72724 | -71.84715 | 18193 ft | 388 kts | 347° |
| 2026-05-09 14:15 | -50.70093 | -71.85061 | 17684 ft | 383 kts | 346° |
| 2026-05-09 14:15 | -50.67448 | -71.85434 | 17186 ft | 380 kts | 346° |
| 2026-05-09 14:15 | -50.64820 | -71.85776 | 16690 ft | 377 kts | 347° |
| 2026-05-09 14:15 | -50.62214 | -71.86098 | 16197 ft | 375 kts | 347° |
| 2026-05-09 14:16 | -50.59627 | -71.86431 | 15709 ft | 371 kts | 347° |
| 2026-05-09 14:16 | -50.57067 | -71.86769 | 15226 ft | 369 kts | 347° |
| 2026-05-09 14:16 | -50.54513 | -71.87101 | 14748 ft | 366 kts | 347° |
| 2026-05-09 14:16 | -50.51982 | -71.87424 | 14266 ft | 364 kts | 347° |
| 2026-05-09 14:17 | -50.49469 | -71.87746 | 13772 ft | 361 kts | 347° |
| 2026-05-09 14:17 | -50.46969 | -71.88069 | 13287 ft | 359 kts | 347° |
| 2026-05-09 14:17 | -50.44476 | -71.88392 | 12815 ft | 358 kts | 347° |
| 2026-05-09 14:17 | -50.41996 | -71.88708 | 12335 ft | 357 kts | 348° |
| 2026-05-09 14:18 | -50.39527 | -71.89023 | 11887 ft | 356 kts | 348° |
| 2026-05-09 14:18 | -50.37065 | -71.89341 | 11420 ft | 352 kts | 348° |
| 2026-05-09 14:18 | -50.34731 | -71.89629 | 10978 ft | 331 kts | 348° |
| 2026-05-09 14:18 | -50.32496 | -71.89906 | 10558 ft | 314 kts | 347° |
| 2026-05-09 14:19 | -50.30377 | -71.90188 | 10168 ft | 297 kts | 346° |
| 2026-05-09 14:19 | -50.28467 | -71.90968 | 9723 ft | 274 kts | 328° |
| 2026-05-09 14:19 | -50.26920 | -71.92542 | 9390 ft | 259 kts | 311° |
| 2026-05-09 14:19 | -50.25782 | -71.94657 | 9065 ft | 251 kts | 297° |
| 2026-05-09 14:20 | -50.24969 | -71.97049 | 8754 ft | 250 kts | 292° |
| 2026-05-09 14:20 | -50.24154 | -71.99465 | 8431 ft | 252 kts | 294° |
| 2026-05-09 14:20 | -50.23327 | -72.01878 | 8101 ft | 252 kts | 294° |
| 2026-05-09 14:21 | -50.21693 | -72.06695 | 7425 ft | 250 kts | 294° |
| 2026-05-09 14:21 | -50.20882 | -72.09085 | 7053 ft | 250 kts | 294° |
| 2026-05-09 14:21 | -50.20078 | -72.11446 | 6643 ft | 241 kts | 295° |
| 2026-05-09 14:21 | -50.19308 | -72.13713 | 6315 ft | 230 kts | 295° |
| 2026-05-09 14:22 | -50.18866 | -72.16022 | 5998 ft | 218 kts | 275° |
| 2026-05-09 14:22 | -50.18929 | -72.18352 | 5760 ft | 213 kts | 265° |
| 2026-05-09 14:22 | -50.19046 | -72.20632 | 5510 ft | 215 kts | 266° |
| 2026-05-09 14:22 | -50.19153 | -72.22970 | 5229 ft | 217 kts | 266° |
| 2026-05-09 14:23 | -50.19264 | -72.25330 | 4953 ft | 218 kts | 266° |
| 2026-05-09 14:23 | -50.19377 | -72.27700 | 4662 ft | 219 kts | 266° |
| 2026-05-09 14:23 | -50.19519 | -72.30065 | 4365 ft | 219 kts | 261° |
| 2026-05-09 14:23 | -50.20172 | -72.32166 | 4016 ft | 216 kts | 232° |
| 2026-05-09 14:24 | -50.21325 | -72.33511 | 4007 ft | 202 kts | 207° |
| 2026-05-09 14:24 | -50.22219 | -72.33901 | 4008 ft | 203 kts | 190° |
| 2026-05-09 14:24 | -50.23656 | -72.33825 | 3960 ft | 210 kts | 178° |
| 2026-05-09 14:24 | -50.25659 | -72.33541 | 3773 ft | 222 kts | 178° |
| 2026-05-09 14:25 | -50.27210 | -72.33284 | 3578 ft | 224 kts | 173° |
| 2026-05-09 14:25 | -50.28155 | -72.32663 | 3344 ft | 224 kts | 147° |
| 2026-05-09 14:25 | -50.29140 | -72.30834 | 3124 ft | 220 kts | 116° |
| 2026-05-09 14:25 | -50.29396 | -72.28539 | 2936 ft | 212 kts | 88° |
| 2026-05-09 14:26 | -50.29262 | -72.26292 | 2812 ft | 204 kts | 84° |
| 2026-05-09 14:26 | -50.29127 | -72.24107 | 2631 ft | 194 kts | 84° |
| 2026-05-09 14:26 | -50.29014 | -72.22130 | 2439 ft | 173 kts | 84° |
| 2026-05-09 14:26 | -50.28911 | -72.20337 | 2289 ft | 158 kts | 84° |
| 2026-05-09 14:27 | -50.28814 | -72.18681 | 2174 ft | 152 kts | 84° |
| 2026-05-09 14:27 | -50.28715 | -72.17025 | 1943 ft | 154 kts | 84° |
| 2026-05-09 14:27 | -50.28618 | -72.15364 | 1716 ft | 153 kts | 84° |
| 2026-05-09 14:27 | -50.28524 | -72.13739 | 1500 ft | 146 kts | 84° |
| 2026-05-09 14:28 | -50.28433 | -72.12213 | 1296 ft | 137 kts | 84° |
| 2026-05-09 14:28 | -50.28347 | -72.10777 | 1118 ft | 129 kts | 84° |
| 2026-05-09 14:28 | -50.28261 | -72.09393 | 929 ft | 126 kts | 84° |
| 2026-05-09 14:28 | -50.28180 | -72.08062 | 767 ft | 123 kts | 85° |
| 2026-05-09 14:29 | -50.28106 | -72.06759 | 646 ft | 117 kts | 85° |
| 2026-05-09 14:29 | -50.28036 | -72.05603 | 637 ft | 87 kts | 84° |
| 2026-05-09 14:29 | -50.27998 | -72.04959 | 641 ft | 44 kts | 87° |
| 2026-05-09 14:29 | -50.27985 | -72.04697 | 640 ft | 12 kts | 18° |
| 2026-05-09 14:30 | -50.27978 | -72.04825 | 641 ft | 20 kts | 259° |
| 2026-05-09 14:30 | -50.28006 | -72.05098 | 639 ft | 27 kts | 262° |
| 2026-05-09 14:30 | -50.28038 | -72.05379 | 639 ft | 24 kts | 233° |
| 2026-05-09 14:30 | -50.28189 | -72.05406 | 638 ft | 21 kts | 172° |
| 2026-05-09 14:31 | -50.28250 | -72.05253 | 638 ft | 20 kts | 84° |
| 2026-05-09 14:31 | -50.28235 | -72.04986 | 638 ft | 26 kts | 84° |
| 2026-05-09 14:31 | -50.28231 | -72.04752 | 638 ft | 14 kts | 129° |
| 2026-05-09 14:31 | -50.28311 | -72.04734 | 638 ft | 11 kts | 174° |
| 2026-05-09 14:32 | -50.28327 | -72.04732 | 638 ft | 0 kts | 174° |